sensor_id;sensor_type;location;lat;lon;timestamp;temperature;humidity
53152;DHT22;39234;53.158;6.322;2022-07-29T00:00:09;14.00;78.60
53152;DHT22;39234;53.158;6.322;2022-07-29T00:02:35;14.00;78.50
53152;DHT22;39234;53.158;6.322;2022-07-29T00:05:01;14.40;81.00
53152;DHT22;39234;53.158;6.322;2022-07-29T00:07:27;13.90;83.40
53152;DHT22;39234;53.158;6.322;2022-07-29T00:09:53;14.10;82.70
53152;DHT22;39234;53.158;6.322;2022-07-29T00:12:20;14.10;82.50
53152;DHT22;39234;53.158;6.322;2022-07-29T00:14:46;14.60;83.90
53152;DHT22;39234;53.158;6.322;2022-07-29T00:17:13;14.00;85.40
53152;DHT22;39234;53.158;6.322;2022-07-29T00:19:40;14.00;87.00
53152;DHT22;39234;53.158;6.322;2022-07-29T00:22:06;14.50;87.60
53152;DHT22;39234;53.158;6.322;2022-07-29T00:24:32;13.80;87.80
53152;DHT22;39234;53.158;6.322;2022-07-29T00:26:57;14.00;89.60
53152;DHT22;39234;53.158;6.322;2022-07-29T00:29:23;13.80;90.30
53152;DHT22;39234;53.158;6.322;2022-07-29T00:31:49;13.70;90.20
53152;DHT22;39234;53.158;6.322;2022-07-29T00:34:15;14.40;91.40
53152;DHT22;39234;53.158;6.322;2022-07-29T00:37:01;14.50;91.90
53152;DHT22;39234;53.158;6.322;2022-07-29T00:39:27;13.80;92.50
53152;DHT22;39234;53.158;6.322;2022-07-29T00:41:52;14.80;92.40
53152;DHT22;39234;53.158;6.322;2022-07-29T00:44:20;13.90;92.50
53152;DHT22;39234;53.158;6.322;2022-07-29T00:46:46;14.60;93.30
53152;DHT22;39234;53.158;6.322;2022-07-29T00:49:12;14.00;93.60
53152;DHT22;39234;53.158;6.322;2022-07-29T00:51:38;13.80;93.90
53152;DHT22;39234;53.158;6.322;2022-07-29T00:54:05;14.00;95.10
53152;DHT22;39234;53.158;6.322;2022-07-29T00:56:31;14.00;95.30
53152;DHT22;39234;53.158;6.322;2022-07-29T00:58:58;14.40;97.30
53152;DHT22;39234;53.158;6.322;2022-07-29T01:01:24;14.10;96.50
53152;DHT22;39234;53.158;6.322;2022-07-29T01:03:50;14.00;96.50
53152;DHT22;39234;53.158;6.322;2022-07-29T01:06:16;16.10;96.90
53152;DHT22;39234;53.158;6.322;2022-07-29T01:08:44;14.90;97.60
53152;DHT22;39234;53.158;6.322;2022-07-29T01:11:10;14.00;97.10
53152;DHT22;39234;53.158;6.322;2022-07-29T01:13:36;14.20;97.70
53152;DHT22;39234;53.158;6.322;2022-07-29T01:16:13;14.00;97.70
53152;DHT22;39234;53.158;6.322;2022-07-29T01:18:44;13.80;96.90
53152;DHT22;39234;53.158;6.322;2022-07-29T01:21:44;15.00;98.10
53152;DHT22;39234;53.158;6.322;2022-07-29T01:27:04;15.00;98.50
53152;DHT22;39234;53.158;6.322;2022-07-29T01:29:47;14.00;98.10
53152;DHT22;39234;53.158;6.322;2022-07-29T01:32:19;14.10;99.40
53152;DHT22;39234;53.158;6.322;2022-07-29T01:37:40;13.90;99.90
53152;DHT22;39234;53.158;6.322;2022-07-29T01:40:14;14.00;99.90
53152;DHT22;39234;53.158;6.322;2022-07-29T01:42:49;13.90;99.90
53152;DHT22;39234;53.158;6.322;2022-07-29T01:45:40;14.60;99.90
53152;DHT22;39234;53.158;6.322;2022-07-29T01:48:09;13.70;99.90
53152;DHT22;39234;53.158;6.322;2022-07-29T01:50:48;14.00;99.90
53152;DHT22;39234;53.158;6.322;2022-07-29T01:53:23;14.10;99.90
53152;DHT22;39234;53.158;6.322;2022-07-29T01:55:51;14.70;99.90
53152;DHT22;39234;53.158;6.322;2022-07-29T01:58:19;14.40;99.90
53152;DHT22;39234;53.158;6.322;2022-07-29T02:00:46;13.90;99.90
53152;DHT22;39234;53.158;6.322;2022-07-29T02:03:13;13.80;99.90
53152;DHT22;39234;53.158;6.322;2022-07-29T02:05:42;13.90;99.90
53152;DHT22;39234;53.158;6.322;2022-07-29T02:08:10;14.70;99.90
53152;DHT22;39234;53.158;6.322;2022-07-29T02:10:39;13.80;99.90
53152;DHT22;39234;53.158;6.322;2022-07-29T02:13:05;14.80;99.90
53152;DHT22;39234;53.158;6.322;2022-07-29T02:15:33;13.90;99.90
53152;DHT22;39234;53.158;6.322;2022-07-29T02:18:09;14.00;99.90
53152;DHT22;39234;53.158;6.322;2022-07-29T02:20:37;14.00;99.70
53152;DHT22;39234;53.158;6.322;2022-07-29T02:23:03;14.90;99.70
53152;DHT22;39234;53.158;6.322;2022-07-29T02:25:30;15.30;99.60
53152;DHT22;39234;53.158;6.322;2022-07-29T02:27:57;14.10;99.20
53152;DHT22;39234;53.158;6.322;2022-07-29T02:30:26;15.00;99.00
53152;DHT22;39234;53.158;6.322;2022-07-29T02:32:53;14.10;97.70
53152;DHT22;39234;53.158;6.322;2022-07-29T02:35:20;14.30;96.90
53152;DHT22;39234;53.158;6.322;2022-07-29T02:37:47;16.20;97.60
53152;DHT22;39234;53.158;6.322;2022-07-29T02:40:34;14.10;96.90
53152;DHT22;39234;53.158;6.322;2022-07-29T02:43:03;14.80;96.50
53152;DHT22;39234;53.158;6.322;2022-07-29T02:45:32;14.20;96.40
53152;DHT22;39234;53.158;6.322;2022-07-29T02:48:00;15.30;96.50
53152;DHT22;39234;53.158;6.322;2022-07-29T02:50:32;14.10;96.00
53152;DHT22;39234;53.158;6.322;2022-07-29T02:53:07;14.20;95.60
53152;DHT22;39234;53.158;6.322;2022-07-29T02:55:37;14.30;94.90
53152;DHT22;39234;53.158;6.322;2022-07-29T02:58:06;15.40;96.00
53152;DHT22;39234;53.158;6.322;2022-07-29T03:00:37;14.10;95.70
53152;DHT22;39234;53.158;6.322;2022-07-29T03:03:06;14.20;96.10
53152;DHT22;39234;53.158;6.322;2022-07-29T03:05:33;14.20;96.30
53152;DHT22;39234;53.158;6.322;2022-07-29T03:08:02;14.30;95.80
53152;DHT22;39234;53.158;6.322;2022-07-29T03:10:29;14.80;95.60
53152;DHT22;39234;53.158;6.322;2022-07-29T03:12:56;14.20;95.10
53152;DHT22;39234;53.158;6.322;2022-07-29T03:15:23;14.30;95.40
53152;DHT22;39234;53.158;6.322;2022-07-29T03:17:49;14.30;94.70
53152;DHT22;39234;53.158;6.322;2022-07-29T03:20:18;15.10;94.50
53152;DHT22;39234;53.158;6.322;2022-07-29T03:22:44;14.10;94.90
53152;DHT22;39234;53.158;6.322;2022-07-29T03:25:17;14.10;95.20
53152;DHT22;39234;53.158;6.322;2022-07-29T03:27:46;14.20;95.50
53152;DHT22;39234;53.158;6.322;2022-07-29T03:30:12;14.90;94.50
53152;DHT22;39234;53.158;6.322;2022-07-29T03:32:39;14.10;94.30
53152;DHT22;39234;53.158;6.322;2022-07-29T03:35:05;14.10;94.40
53152;DHT22;39234;53.158;6.322;2022-07-29T03:37:32;14.10;94.30
53152;DHT22;39234;53.158;6.322;2022-07-29T03:40:00;15.80;94.80
53152;DHT22;39234;53.158;6.322;2022-07-29T03:42:31;14.50;94.20
53152;DHT22;39234;53.158;6.322;2022-07-29T03:45:01;14.20;93.90
53152;DHT22;39234;53.158;6.322;2022-07-29T03:47:28;14.20;93.30
53152;DHT22;39234;53.158;6.322;2022-07-29T03:50:00;14.20;92.30
53152;DHT22;39234;53.158;6.322;2022-07-29T03:52:27;14.30;90.50
53152;DHT22;39234;53.158;6.322;2022-07-29T03:54:53;14.20;90.60
53152;DHT22;39234;53.158;6.322;2022-07-29T03:57:23;16.20;90.10
53152;DHT22;39234;53.158;6.322;2022-07-29T03:59:51;15.40;90.50
53152;DHT22;39234;53.158;6.322;2022-07-29T04:02:17;14.20;90.50
53152;DHT22;39234;53.158;6.322;2022-07-29T04:04:45;14.20;90.10
53152;DHT22;39234;53.158;6.322;2022-07-29T04:07:15;16.00;91.10
53152;DHT22;39234;53.158;6.322;2022-07-29T04:09:41;15.60;90.20
53152;DHT22;39234;53.158;6.322;2022-07-29T04:12:07;16.40;89.10
53152;DHT22;39234;53.158;6.322;2022-07-29T04:14:35;14.20;84.60
53152;DHT22;39234;53.158;6.322;2022-07-29T04:17:02;14.30;83.20
53152;DHT22;39234;53.158;6.322;2022-07-29T04:19:28;14.40;83.20
53152;DHT22;39234;53.158;6.322;2022-07-29T04:21:53;14.20;82.10
53152;DHT22;39234;53.158;6.322;2022-07-29T04:24:19;14.40;81.70
53152;DHT22;39234;53.158;6.322;2022-07-29T04:26:46;14.30;81.20
53152;DHT22;39234;53.158;6.322;2022-07-29T04:29:12;15.40;81.00
53152;DHT22;39234;53.158;6.322;2022-07-29T04:31:40;14.40;81.10
53152;DHT22;39234;53.158;6.322;2022-07-29T04:34:05;14.30;80.50
53152;DHT22;39234;53.158;6.322;2022-07-29T04:36:33;16.10;82.10
53152;DHT22;39234;53.158;6.322;2022-07-29T04:39:01;15.20;81.60
53152;DHT22;39234;53.158;6.322;2022-07-29T04:41:27;14.30;81.90
53152;DHT22;39234;53.158;6.322;2022-07-29T04:43:53;14.40;82.60
53152;DHT22;39234;53.158;6.322;2022-07-29T04:46:19;15.10;82.50
53152;DHT22;39234;53.158;6.322;2022-07-29T04:48:47;16.00;83.90
53152;DHT22;39234;53.158;6.322;2022-07-29T04:51:14;14.30;83.70
53152;DHT22;39234;53.158;6.322;2022-07-29T04:53:40;15.10;84.10
53152;DHT22;39234;53.158;6.322;2022-07-29T04:56:05;15.40;84.80
53152;DHT22;39234;53.158;6.322;2022-07-29T04:58:33;14.50;82.90
53152;DHT22;39234;53.158;6.322;2022-07-29T05:01:01;14.70;84.70
53152;DHT22;39234;53.158;6.322;2022-07-29T05:03:26;14.30;83.30
53152;DHT22;39234;53.158;6.322;2022-07-29T05:05:52;16.30;83.50
53152;DHT22;39234;53.158;6.322;2022-07-29T05:08:18;14.40;81.90
53152;DHT22;39234;53.158;6.322;2022-07-29T05:10:43;15.00;81.20
53152;DHT22;39234;53.158;6.322;2022-07-29T05:13:09;15.60;81.00
53152;DHT22;39234;53.158;6.322;2022-07-29T05:15:35;14.50;79.90
53152;DHT22;39234;53.158;6.322;2022-07-29T05:18:02;14.60;80.00
53152;DHT22;39234;53.158;6.322;2022-07-29T05:20:28;14.60;79.60
53152;DHT22;39234;53.158;6.322;2022-07-29T05:23:00;16.50;79.50
53152;DHT22;39234;53.158;6.322;2022-07-29T05:25:27;14.60;79.00
53152;DHT22;39234;53.158;6.322;2022-07-29T05:27:53;14.60;77.80
53152;DHT22;39234;53.158;6.322;2022-07-29T05:30:21;14.80;78.20
53152;DHT22;39234;53.158;6.322;2022-07-29T05:32:47;14.60;78.10
53152;DHT22;39234;53.158;6.322;2022-07-29T05:35:13;15.00;77.90
53152;DHT22;39234;53.158;6.322;2022-07-29T05:37:39;16.80;77.70
53152;DHT22;39234;53.158;6.322;2022-07-29T05:40:06;14.80;74.70
53152;DHT22;39234;53.158;6.322;2022-07-29T05:42:31;14.80;74.00
53152;DHT22;39234;53.158;6.322;2022-07-29T05:44:59;15.60;73.30
53152;DHT22;39234;53.158;6.322;2022-07-29T05:47:26;15.00;70.90
53152;DHT22;39234;53.158;6.322;2022-07-29T05:49:52;14.90;71.10
53152;DHT22;39234;53.158;6.322;2022-07-29T05:52:19;15.20;70.60
53152;DHT22;39234;53.158;6.322;2022-07-29T05:54:45;14.90;68.70
53152;DHT22;39234;53.158;6.322;2022-07-29T05:57:18;15.20;65.00
53152;DHT22;39234;53.158;6.322;2022-07-29T05:59:45;15.10;64.10
53152;DHT22;39234;53.158;6.322;2022-07-29T06:02:11;15.20;64.20
53152;DHT22;39234;53.158;6.322;2022-07-29T06:04:36;17.00;64.20
53152;DHT22;39234;53.158;6.322;2022-07-29T06:07:02;16.30;52.60
53152;DHT22;39234;53.158;6.322;2022-07-29T06:09:28;15.50;49.00
53152;DHT22;39234;53.158;6.322;2022-07-29T06:11:54;15.60;46.50
53152;DHT22;39234;53.158;6.322;2022-07-29T06:14:19;15.60;34.20
53152;DHT22;39234;53.158;6.322;2022-07-29T06:16:47;15.90;99.90
53152;DHT22;39234;53.158;6.322;2022-07-29T06:19:13;17.20;99.90
53152;DHT22;39234;53.158;6.322;2022-07-29T06:21:45;16.80;99.90
53152;DHT22;39234;53.158;6.322;2022-07-29T06:24:13;16.30;99.90
53152;DHT22;39234;53.158;6.322;2022-07-29T06:26:40;16.20;99.90
53152;DHT22;39234;53.158;6.322;2022-07-29T06:29:07;16.80;99.90
53152;DHT22;39234;53.158;6.322;2022-07-29T06:31:34;16.20;99.90
53152;DHT22;39234;53.158;6.322;2022-07-29T06:34:00;16.10;99.90
53152;DHT22;39234;53.158;6.322;2022-07-29T06:36:26;16.40;99.90
53152;DHT22;39234;53.158;6.322;2022-07-29T06:38:53;16.30;99.90
53152;DHT22;39234;53.158;6.322;2022-07-29T06:41:20;16.50;99.90
53152;DHT22;39234;53.158;6.322;2022-07-29T06:43:48;16.30;99.90
53152;DHT22;39234;53.158;6.322;2022-07-29T06:46:15;17.50;99.90
53152;DHT22;39234;53.158;6.322;2022-07-29T06:48:42;17.30;99.90
53152;DHT22;39234;53.158;6.322;2022-07-29T06:51:09;16.70;99.90
53152;DHT22;39234;53.158;6.322;2022-07-29T06:53:37;17.00;99.90
53152;DHT22;39234;53.158;6.322;2022-07-29T06:56:04;16.60;99.90
53152;DHT22;39234;53.158;6.322;2022-07-29T06:58:30;16.80;99.90
53152;DHT22;39234;53.158;6.322;2022-07-29T07:01:00;16.90;99.90
53152;DHT22;39234;53.158;6.322;2022-07-29T07:03:26;16.90;99.90
53152;DHT22;39234;53.158;6.322;2022-07-29T07:05:53;19.00;99.90
53152;DHT22;39234;53.158;6.322;2022-07-29T07:08:21;17.60;99.90
53152;DHT22;39234;53.158;6.322;2022-07-29T07:10:48;18.20;99.90
53152;DHT22;39234;53.158;6.322;2022-07-29T07:13:13;17.70;99.90
53152;DHT22;39234;53.158;6.322;2022-07-29T07:15:41;18.50;99.90
53152;DHT22;39234;53.158;6.322;2022-07-29T07:18:07;17.70;99.90
53152;DHT22;39234;53.158;6.322;2022-07-29T07:20:33;17.80;99.90
53152;DHT22;39234;53.158;6.322;2022-07-29T07:22:59;20.60;99.90
53152;DHT22;39234;53.158;6.322;2022-07-29T07:25:25;18.90;99.90
53152;DHT22;39234;53.158;6.322;2022-07-29T07:27:51;19.40;99.90
53152;DHT22;39234;53.158;6.322;2022-07-29T07:30:18;20.30;99.90
53152;DHT22;39234;53.158;6.322;2022-07-29T07:32:44;20.50;99.90
53152;DHT22;39234;53.158;6.322;2022-07-29T07:35:10;20.30;99.90
53152;DHT22;39234;53.158;6.322;2022-07-29T07:37:36;20.10;99.90
53152;DHT22;39234;53.158;6.322;2022-07-29T07:40:03;18.40;99.90
53152;DHT22;39234;53.158;6.322;2022-07-29T07:42:29;20.20;99.90
53152;DHT22;39234;53.158;6.322;2022-07-29T07:44:55;20.50;99.90
53152;DHT22;39234;53.158;6.322;2022-07-29T07:47:20;20.70;99.90
53152;DHT22;39234;53.158;6.322;2022-07-29T07:49:47;21.00;99.90
53152;DHT22;39234;53.158;6.322;2022-07-29T07:52:18;20.90;99.90
53152;DHT22;39234;53.158;6.322;2022-07-29T07:54:44;20.20;99.90
53152;DHT22;39234;53.158;6.322;2022-07-29T07:57:11;19.80;99.90
53152;DHT22;39234;53.158;6.322;2022-07-29T07:59:37;21.50;99.90
53152;DHT22;39234;53.158;6.322;2022-07-29T08:02:03;19.10;99.90
53152;DHT22;39234;53.158;6.322;2022-07-29T08:04:29;18.80;99.90
53152;DHT22;39234;53.158;6.322;2022-07-29T08:06:56;19.10;99.90
53152;DHT22;39234;53.158;6.322;2022-07-29T08:09:22;18.40;99.90
53152;DHT22;39234;53.158;6.322;2022-07-29T08:11:48;18.30;99.90
53152;DHT22;39234;53.158;6.322;2022-07-29T08:14:15;19.20;99.90
53152;DHT22;39234;53.158;6.322;2022-07-29T08:16:41;18.00;99.90
53152;DHT22;39234;53.158;6.322;2022-07-29T08:19:07;18.10;99.90
53152;DHT22;39234;53.158;6.322;2022-07-29T08:21:33;18.00;99.90
53152;DHT22;39234;53.158;6.322;2022-07-29T08:23:59;19.30;99.90
53152;DHT22;39234;53.158;6.322;2022-07-29T08:26:43;17.90;99.90
53152;DHT22;39234;53.158;6.322;2022-07-29T08:29:09;17.80;99.90
53152;DHT22;39234;53.158;6.322;2022-07-29T08:31:39;17.80;99.90
53152;DHT22;39234;53.158;6.322;2022-07-29T08:34:05;17.60;99.90
53152;DHT22;39234;53.158;6.322;2022-07-29T08:36:32;17.70;99.90
53152;DHT22;39234;53.158;6.322;2022-07-29T08:38:59;17.60;99.90
53152;DHT22;39234;53.158;6.322;2022-07-29T08:41:25;17.80;99.90
53152;DHT22;39234;53.158;6.322;2022-07-29T08:43:52;18.90;99.90
53152;DHT22;39234;53.158;6.322;2022-07-29T08:46:18;18.10;99.90
53152;DHT22;39234;53.158;6.322;2022-07-29T08:48:46;17.50;99.90
53152;DHT22;39234;53.158;6.322;2022-07-29T08:51:20;17.50;99.90
53152;DHT22;39234;53.158;6.322;2022-07-29T08:53:48;17.80;99.90
53152;DHT22;39234;53.158;6.322;2022-07-29T08:56:18;19.00;99.90
53152;DHT22;39234;53.158;6.322;2022-07-29T08:58:47;17.80;99.90
53152;DHT22;39234;53.158;6.322;2022-07-29T09:01:17;17.90;99.90
53152;DHT22;39234;53.158;6.322;2022-07-29T09:03:45;18.00;99.90
53152;DHT22;39234;53.158;6.322;2022-07-29T09:06:15;17.90;99.90
53152;DHT22;39234;53.158;6.322;2022-07-29T09:08:42;17.90;99.90
53152;DHT22;39234;53.158;6.322;2022-07-29T09:11:11;18.10;99.90
53152;DHT22;39234;53.158;6.322;2022-07-29T09:13:37;17.90;99.90
53152;DHT22;39234;53.158;6.322;2022-07-29T09:16:03;18.10;99.90
53152;DHT22;39234;53.158;6.322;2022-07-29T09:18:39;18.20;99.90
53152;DHT22;39234;53.158;6.322;2022-07-29T09:21:08;18.10;99.90
53152;DHT22;39234;53.158;6.322;2022-07-29T09:24:21;18.40;99.90
53152;DHT22;39234;53.158;6.322;2022-07-29T09:26:47;19.30;99.90
53152;DHT22;39234;53.158;6.322;2022-07-29T09:29:15;18.70;99.90
53152;DHT22;39234;53.158;6.322;2022-07-29T09:31:43;18.70;99.90
53152;DHT22;39234;53.158;6.322;2022-07-29T09:34:10;18.70;99.90
53152;DHT22;39234;53.158;6.322;2022-07-29T09:36:48;19.90;99.90
53152;DHT22;39234;53.158;6.322;2022-07-29T09:39:15;21.10;99.90
53152;DHT22;39234;53.158;6.322;2022-07-29T09:41:51;20.60;99.90
53152;DHT22;39234;53.158;6.322;2022-07-29T09:44:21;19.00;99.90
53152;DHT22;39234;53.158;6.322;2022-07-29T09:46:56;21.20;99.90
53152;DHT22;39234;53.158;6.322;2022-07-29T09:49:23;19.10;99.90
53152;DHT22;39234;53.158;6.322;2022-07-29T09:52:08;21.10;99.90
53152;DHT22;39234;53.158;6.322;2022-07-29T09:54:35;19.00;99.90
53152;DHT22;39234;53.158;6.322;2022-07-29T09:57:06;19.10;99.90
53152;DHT22;39234;53.158;6.322;2022-07-29T09:59:33;21.00;99.90
53152;DHT22;39234;53.158;6.322;2022-07-29T10:01:59;19.00;99.90
53152;DHT22;39234;53.158;6.322;2022-07-29T10:04:37;18.90;99.90
53152;DHT22;39234;53.158;6.322;2022-07-29T10:07:04;18.90;99.90
53152;DHT22;39234;53.158;6.322;2022-07-29T10:09:32;21.10;99.90
53152;DHT22;39234;53.158;6.322;2022-07-29T10:12:12;20.70;99.90
53152;DHT22;39234;53.158;6.322;2022-07-29T10:14:43;19.50;99.90
53152;DHT22;39234;53.158;6.322;2022-07-29T10:17:09;20.60;99.90
53152;DHT22;39234;53.158;6.322;2022-07-29T10:19:37;19.40;99.90
53152;DHT22;39234;53.158;6.322;2022-07-29T10:22:09;19.90;99.90
53152;DHT22;39234;53.158;6.322;2022-07-29T10:24:36;19.40;99.90
53152;DHT22;39234;53.158;6.322;2022-07-29T10:27:04;19.60;99.90
53152;DHT22;39234;53.158;6.322;2022-07-29T10:29:31;19.80;99.90
53152;DHT22;39234;53.158;6.322;2022-07-29T10:38:04;19.50;99.90
53152;DHT22;39234;53.158;6.322;2022-07-29T10:43:28;19.50;99.90
53152;DHT22;39234;53.158;6.322;2022-07-29T10:45:59;19.80;99.90
53152;DHT22;39234;53.158;6.322;2022-07-29T10:48:25;19.60;99.90
53152;DHT22;39234;53.158;6.322;2022-07-29T10:53:23;20.00;99.90
53152;DHT22;39234;53.158;6.322;2022-07-29T10:55:51;22.50;99.90
53152;DHT22;39234;53.158;6.322;2022-07-29T10:58:22;20.60;99.90
53152;DHT22;39234;53.158;6.322;2022-07-29T11:00:53;21.00;99.90
53152;DHT22;39234;53.158;6.322;2022-07-29T11:06:07;21.80;99.90
53152;DHT22;39234;53.158;6.322;2022-07-29T11:08:32;22.30;99.90
53152;DHT22;39234;53.158;6.322;2022-07-29T11:14:06;21.90;99.90
53152;DHT22;39234;53.158;6.322;2022-07-29T11:17:08;21.40;99.90
53152;DHT22;39234;53.158;6.322;2022-07-29T11:19:34;21.40;99.90
53152;DHT22;39234;53.158;6.322;2022-07-29T11:22:00;21.70;99.90
53152;DHT22;39234;53.158;6.322;2022-07-29T11:24:28;21.10;99.90
53152;DHT22;39234;53.158;6.322;2022-07-29T11:29:40;21.10;99.90
53152;DHT22;39234;53.158;6.322;2022-07-29T11:32:11;21.10;99.90
53152;DHT22;39234;53.158;6.322;2022-07-29T11:34:39;21.20;99.90
53152;DHT22;39234;53.158;6.322;2022-07-29T11:39:44;20.80;99.90
53152;DHT22;39234;53.158;6.322;2022-07-29T11:47:29;20.60;99.90
53152;DHT22;39234;53.158;6.322;2022-07-29T11:49:56;20.50;99.90
53152;DHT22;39234;53.158;6.322;2022-07-29T11:52:40;20.30;99.90
53152;DHT22;39234;53.158;6.322;2022-07-29T11:55:19;20.30;99.90
53152;DHT22;39234;53.158;6.322;2022-07-29T11:57:56;20.60;99.90
53152;DHT22;39234;53.158;6.322;2022-07-29T12:00:36;20.60;99.90
53152;DHT22;39234;53.158;6.322;2022-07-29T12:03:06;20.50;99.90
53152;DHT22;39234;53.158;6.322;2022-07-29T12:05:43;20.60;99.90
53152;DHT22;39234;53.158;6.322;2022-07-29T12:08:18;20.70;99.90
53152;DHT22;39234;53.158;6.322;2022-07-29T12:10:46;20.60;99.90
53152;DHT22;39234;53.158;6.322;2022-07-29T12:13:13;20.80;99.90
53152;DHT22;39234;53.158;6.322;2022-07-29T12:15:42;20.60;99.90
53152;DHT22;39234;53.158;6.322;2022-07-29T12:18:18;21.00;99.90
53152;DHT22;39234;53.158;6.322;2022-07-29T12:20:45;21.20;99.90
53152;DHT22;39234;53.158;6.322;2022-07-29T12:23:11;21.20;99.90
53152;DHT22;39234;53.158;6.322;2022-07-29T12:25:39;20.10;99.90
53152;DHT22;39234;53.158;6.322;2022-07-29T12:28:08;21.40;99.90
53152;DHT22;39234;53.158;6.322;2022-07-29T12:30:45;21.50;99.90
53152;DHT22;39234;53.158;6.322;2022-07-29T12:35:48;21.80;99.90
53152;DHT22;39234;53.158;6.322;2022-07-29T12:38:15;22.60;99.90
53152;DHT22;39234;53.158;6.322;2022-07-29T12:40:43;22.70;99.90
53152;DHT22;39234;53.158;6.322;2022-07-29T12:43:12;22.60;99.90
53152;DHT22;39234;53.158;6.322;2022-07-29T12:45:41;22.50;99.90
53152;DHT22;39234;53.158;6.322;2022-07-29T12:48:07;22.30;99.90
53152;DHT22;39234;53.158;6.322;2022-07-29T12:51:00;22.60;99.90
53152;DHT22;39234;53.158;6.322;2022-07-29T12:53:27;22.50;99.90
53152;DHT22;39234;53.158;6.322;2022-07-29T12:55:54;22.80;99.90
53152;DHT22;39234;53.158;6.322;2022-07-29T12:58:35;23.00;99.90
53152;DHT22;39234;53.158;6.322;2022-07-29T13:01:13;22.90;99.90
53152;DHT22;39234;53.158;6.322;2022-07-29T13:03:57;24.40;99.90
53152;DHT22;39234;53.158;6.322;2022-07-29T13:09:14;23.00;99.90
53152;DHT22;39234;53.158;6.322;2022-07-29T13:11:44;23.40;99.90
53152;DHT22;39234;53.158;6.322;2022-07-29T13:14:12;23.20;99.90
53152;DHT22;39234;53.158;6.322;2022-07-29T13:17:05;23.30;99.90
53152;DHT22;39234;53.158;6.322;2022-07-29T13:22:22;24.30;99.90
53152;DHT22;39234;53.158;6.322;2022-07-29T13:27:17;24.00;99.90
53152;DHT22;39234;53.158;6.322;2022-07-29T13:29:43;24.30;99.90
53152;DHT22;39234;53.158;6.322;2022-07-29T13:32:08;24.50;99.90
53152;DHT22;39234;53.158;6.322;2022-07-29T13:34:35;24.40;99.90
53152;DHT22;39234;53.158;6.322;2022-07-29T13:37:01;25.10;99.90
53152;DHT22;39234;53.158;6.322;2022-07-29T13:39:26;24.80;99.90
53152;DHT22;39234;53.158;6.322;2022-07-29T13:41:52;24.60;99.90
53152;DHT22;39234;53.158;6.322;2022-07-29T13:44:18;24.80;99.90
53152;DHT22;39234;53.158;6.322;2022-07-29T13:46:44;24.60;99.90
53152;DHT22;39234;53.158;6.322;2022-07-29T13:49:09;24.90;99.90
53152;DHT22;39234;53.158;6.322;2022-07-29T13:51:37;24.90;99.90
53152;DHT22;39234;53.158;6.322;2022-07-29T13:54:04;25.00;99.90
53152;DHT22;39234;53.158;6.322;2022-07-29T13:56:30;25.00;99.90
53152;DHT22;39234;53.158;6.322;2022-07-29T13:58:56;25.00;99.90
53152;DHT22;39234;53.158;6.322;2022-07-29T14:01:23;24.80;99.90
53152;DHT22;39234;53.158;6.322;2022-07-29T14:03:49;25.10;99.90
53152;DHT22;39234;53.158;6.322;2022-07-29T14:06:14;25.10;99.90
53152;DHT22;39234;53.158;6.322;2022-07-29T14:08:40;25.20;99.90
53152;DHT22;39234;53.158;6.322;2022-07-29T14:11:06;25.10;99.90
53152;DHT22;39234;53.158;6.322;2022-07-29T14:13:32;25.00;99.90
53152;DHT22;39234;53.158;6.322;2022-07-29T14:15:57;25.30;99.90
53152;DHT22;39234;53.158;6.322;2022-07-29T14:18:23;25.20;99.90
53152;DHT22;39234;53.158;6.322;2022-07-29T14:20:49;25.40;99.90
53152;DHT22;39234;53.158;6.322;2022-07-29T14:23:16;25.20;99.90
53152;DHT22;39234;53.158;6.322;2022-07-29T14:25:42;25.40;99.90
53152;DHT22;39234;53.158;6.322;2022-07-29T14:28:08;25.20;99.90
53152;DHT22;39234;53.158;6.322;2022-07-29T14:30:34;24.90;99.90
53152;DHT22;39234;53.158;6.322;2022-07-29T14:33:01;25.00;99.90
53152;DHT22;39234;53.158;6.322;2022-07-29T14:35:28;24.90;99.90
53152;DHT22;39234;53.158;6.322;2022-07-29T14:37:54;26.50;99.90
53152;DHT22;39234;53.158;6.322;2022-07-29T14:40:20;24.90;99.90
53152;DHT22;39234;53.158;6.322;2022-07-29T14:42:45;25.00;99.90
53152;DHT22;39234;53.158;6.322;2022-07-29T14:45:11;25.10;99.90
53152;DHT22;39234;53.158;6.322;2022-07-29T14:47:39;24.90;99.90
53152;DHT22;39234;53.158;6.322;2022-07-29T14:50:05;25.40;99.90
53152;DHT22;39234;53.158;6.322;2022-07-29T14:52:31;25.00;99.90
53152;DHT22;39234;53.158;6.322;2022-07-29T14:54:57;25.20;99.90
53152;DHT22;39234;53.158;6.322;2022-07-29T14:57:23;25.30;99.90
53152;DHT22;39234;53.158;6.322;2022-07-29T14:59:49;25.10;99.90
53152;DHT22;39234;53.158;6.322;2022-07-29T15:02:15;25.10;99.90
53152;DHT22;39234;53.158;6.322;2022-07-29T15:04:40;24.70;99.90
53152;DHT22;39234;53.158;6.322;2022-07-29T15:07:08;24.60;99.90
53152;DHT22;39234;53.158;6.322;2022-07-29T15:09:33;24.60;99.90
53152;DHT22;39234;53.158;6.322;2022-07-29T15:11:59;24.50;99.90
53152;DHT22;39234;53.158;6.322;2022-07-29T15:14:25;24.60;99.90
53152;DHT22;39234;53.158;6.322;2022-07-29T15:16:52;24.40;99.90
53152;DHT22;39234;53.158;6.322;2022-07-29T15:19:18;24.30;99.90
53152;DHT22;39234;53.158;6.322;2022-07-29T15:21:44;24.30;99.90
53152;DHT22;39234;53.158;6.322;2022-07-29T15:24:10;24.00;99.90
53152;DHT22;39234;53.158;6.322;2022-07-29T15:26:36;24.30;99.90
53152;DHT22;39234;53.158;6.322;2022-07-29T15:29:01;24.00;99.90
53152;DHT22;39234;53.158;6.322;2022-07-29T15:31:27;24.10;99.90
53152;DHT22;39234;53.158;6.322;2022-07-29T15:33:53;23.70;99.90
53152;DHT22;39234;53.158;6.322;2022-07-29T15:36:18;23.80;99.90
53152;DHT22;39234;53.158;6.322;2022-07-29T15:38:44;23.70;99.90
53152;DHT22;39234;53.158;6.322;2022-07-29T15:41:13;24.40;99.90
53152;DHT22;39234;53.158;6.322;2022-07-29T15:43:43;23.50;99.90
53152;DHT22;39234;53.158;6.322;2022-07-29T15:46:13;23.70;99.90
53152;DHT22;39234;53.158;6.322;2022-07-29T15:48:59;25.80;99.90
53152;DHT22;39234;53.158;6.322;2022-07-29T15:51:25;23.90;99.90
53152;DHT22;39234;53.158;6.322;2022-07-29T15:53:51;24.10;99.90
53152;DHT22;39234;53.158;6.322;2022-07-29T15:56:16;24.50;99.90
53152;DHT22;39234;53.158;6.322;2022-07-29T15:58:44;24.30;99.90
53152;DHT22;39234;53.158;6.322;2022-07-29T16:01:10;24.30;99.90
53152;DHT22;39234;53.158;6.322;2022-07-29T16:03:36;24.40;99.90
53152;DHT22;39234;53.158;6.322;2022-07-29T16:06:03;24.20;99.90
53152;DHT22;39234;53.158;6.322;2022-07-29T16:08:29;24.10;99.90
53152;DHT22;39234;53.158;6.322;2022-07-29T16:10:55;24.00;99.90
53152;DHT22;39234;53.158;6.322;2022-07-29T16:13:20;24.00;99.90
53152;DHT22;39234;53.158;6.322;2022-07-29T16:15:46;25.70;99.90
53152;DHT22;39234;53.158;6.322;2022-07-29T16:18:12;24.30;99.90
53152;DHT22;39234;53.158;6.322;2022-07-29T16:20:39;24.00;99.90